Time;durP1;ratioP1;P1;durP2;ratioP2;P2;SDS_P1;SDS_P2;PMS_P1;PMS_P2;Temp;Humidity;BMP_temperature;BMP_pressure;BME280_temperature;BME280_humidity;BME280_pressure;Samples;Min_cycle;Max_cycle;Signal;HPM_P1;HPM_P2
2021/04/27 00:00:18;;;;;;;2.83;0.93;;;;;;;;;;5038213;28;20581;-71
2021/04/27 00:02:47;;;;;;;4.23;1.23;;;;;;;;;;5038006;28;20483;-71
2021/04/27 00:05:19;;;;;;;3.57;2.10;;;;;;;;;;5038471;28;20471;-70
2021/04/27 00:07:47;;;;;;;3.63;1.40;;;;;;;;;;5039142;28;20447;-71
2021/04/27 00:10:15;;;;;;;3.77;1.10;;;;;;;;;;5037315;28;20466;-70
2021/04/27 00:12:50;;;;;;;4.13;1.43;;;;;;;;;;5038201;28;20463;-71
2021/04/27 00:15:18;;;;;;;3.07;1.00;;;;;;;;;;5036169;28;20565;-71
2021/04/27 00:17:47;;;;;;;3.57;1.30;;;;;;;;;;5022589;28;20460;-70
2021/04/27 00:20:21;;;;;;;3.77;1.53;;;;;;;;;;5032962;28;20477;-71
2021/04/27 00:23:00;;;;;;;3.70;1.20;;;;;;;;;;5037023;28;20616;-71
2021/04/27 00:25:27;;;;;;;4.10;1.30;;;;;;;;;;5037897;28;20920;-71
2021/04/27 00:27:55;;;;;;;2.90;1.00;;;;;;;;;;5037857;28;20484;-70
2021/04/27 00:30:24;;;;;;;3.53;1.30;;;;;;;;;;5036747;28;20462;-71
2021/04/27 00:32:53;;;;;;;2.50;1.13;;;;;;;;;;5029253;28;20469;-71
2021/04/27 00:35:20;;;;;;;3.33;1.20;;;;;;;;;;5037599;28;20473;-71
2021/04/27 00:37:48;;;;;;;4.63;1.50;;;;;;;;;;5036891;28;20880;-71
2021/04/27 00:40:16;;;;;;;8.20;1.63;;;;;;;;;;5037298;28;20466;-70
2021/04/27 00:42:45;;;;;;;2.87;0.90;;;;;;;;;;5037617;28;20578;-71
2021/04/27 00:45:15;;;;;;;5.33;1.50;;;;;;;;;;5031737;28;20493;-70
2021/04/27 00:47:42;;;;;;;4.17;0.90;;;;;;;;;;5036875;28;20911;-70
2021/04/27 00:50:12;;;;;;;3.97;1.30;;;;;;;;;;5036856;28;20474;-70
2021/04/27 00:52:39;;;;;;;3.27;1.13;;;;;;;;;;5029512;28;20475;-73
2021/04/27 00:55:10;;;;;;;5.90;1.20;;;;;;;;;;5016946;28;20483;-71
2021/04/27 00:57:37;;;;;;;2.97;1.10;;;;;;;;;;5016600;28;20845;-70
2021/04/27 01:00:06;;;;;;;3.70;1.47;;;;;;;;;;5031395;28;20905;-70
2021/04/27 01:02:50;;;;;;;3.00;1.03;;;;;;;;;;5019396;28;20491;-70
2021/04/27 01:08:24;;;;;;;3.30;1.03;;;;;;;;;;5036684;28;20473;-71
2021/04/27 01:10:54;;;;;;;2.80;0.90;;;;;;;;;;5017526;28;20555;-70
2021/04/27 01:13:37;;;;;;;6.03;1.10;;;;;;;;;;5017858;28;20558;-71
2021/04/27 01:16:05;;;;;;;5.90;0.83;;;;;;;;;;5017191;28;20448;-70
2021/04/27 01:18:32;;;;;;;5.43;2.20;;;;;;;;;;5029492;28;20467;-71
2021/04/27 01:21:01;;;;;;;5.10;1.23;;;;;;;;;;5036075;28;20470;-70
2021/04/27 01:23:53;;;;;;;3.90;1.30;;;;;;;;;;5040283;28;20486;-71
2021/04/27 01:26:30;;;;;;;3.77;1.00;;;;;;;;;;5040934;28;20792;-71
2021/04/27 01:28:59;;;;;;;3.50;1.10;;;;;;;;;;5035171;28;20463;-70
2021/04/27 01:31:28;;;;;;;4.13;1.70;;;;;;;;;;5021427;28;20470;-70
2021/04/27 01:34:07;;;;;;;4.20;1.10;;;;;;;;;;5021517;28;20530;-70
2021/04/27 01:36:37;;;;;;;4.60;1.33;;;;;;;;;;5021058;28;20847;-72
2021/04/27 01:39:06;;;;;;;3.90;1.30;;;;;;;;;;5020700;28;20933;-71
2021/04/27 01:41:35;;;;;;;3.50;1.20;;;;;;;;;;5021216;28;20900;-69
2021/04/27 01:44:03;;;;;;;5.00;1.60;;;;;;;;;;5038204;28;20863;-70
2021/04/27 01:46:31;;;;;;;2.63;0.80;;;;;;;;;;5026100;28;20465;-70
2021/04/27 01:48:59;;;;;;;3.53;1.30;;;;;;;;;;5040359;28;20474;-71
2021/04/27 01:51:27;;;;;;;3.47;0.90;;;;;;;;;;5040729;28;20466;-71
2021/04/27 01:53:56;;;;;;;2.53;0.90;;;;;;;;;;5040451;28;20474;-71
2021/04/27 01:56:24;;;;;;;4.10;1.20;;;;;;;;;;5039904;28;20455;-71
2021/04/27 01:58:53;;;;;;;4.30;1.80;;;;;;;;;;5040302;28;20565;-71
2021/04/27 02:01:21;;;;;;;3.30;1.27;;;;;;;;;;5040180;28;20486;-70
2021/04/27 02:03:50;;;;;;;3.37;1.50;;;;;;;;;;5040759;28;20852;-71
2021/04/27 02:06:17;;;;;;;2.80;1.10;;;;;;;;;;5041432;28;20513;-71
2021/04/27 02:08:58;;;;;;;4.03;1.40;;;;;;;;;;5040528;28;20482;-70
2021/04/27 02:11:35;;;;;;;4.20;1.27;;;;;;;;;;5041630;28;20466;-71
2021/04/27 02:14:07;;;;;;;4.80;1.00;;;;;;;;;;5041073;28;20454;-71
2021/04/27 02:16:38;;;;;;;3.73;1.20;;;;;;;;;;5040916;28;20851;-71
2021/04/27 02:19:08;;;;;;;3.90;1.33;;;;;;;;;;5039688;28;20450;-70
2021/04/27 02:21:36;;;;;;;2.83;1.20;;;;;;;;;;5039894;28;20495;-70
2021/04/27 02:24:15;;;;;;;3.47;1.30;;;;;;;;;;5039502;28;20461;-71
2021/04/27 02:26:44;;;;;;;3.40;1.60;;;;;;;;;;5039516;28;20455;-69
2021/04/27 02:29:14;;;;;;;4.17;1.63;;;;;;;;;;5038711;28;20760;-70
2021/04/27 02:31:42;;;;;;;3.97;1.10;;;;;;;;;;5039296;28;20534;-70
2021/04/27 02:34:13;;;;;;;3.40;1.40;;;;;;;;;;5038486;28;20462;-71
2021/04/27 02:36:44;;;;;;;3.03;1.03;;;;;;;;;;5039594;28;20498;-71
2021/04/27 02:39:12;;;;;;;3.90;1.30;;;;;;;;;;5039537;28;20457;-69
2021/04/27 02:41:41;;;;;;;3.27;1.37;;;;;;;;;;5039391;28;20850;-70
2021/04/27 02:44:13;;;;;;;3.97;1.27;;;;;;;;;;5039193;28;20549;-71
2021/04/27 02:46:49;;;;;;;2.80;1.30;;;;;;;;;;5039155;28;20883;-70
2021/04/27 02:49:23;;;;;;;2.70;1.47;;;;;;;;;;5032021;28;20869;-71
2021/04/27 02:51:54;;;;;;;4.50;1.67;;;;;;;;;;5020879;28;20710;-71
2021/04/27 02:54:21;;;;;;;3.17;1.30;;;;;;;;;;5019923;28;20459;-71
2021/04/27 02:56:52;;;;;;;4.10;1.63;;;;;;;;;;5020174;28;20544;-71
2021/04/27 02:59:20;;;;;;;4.33;1.30;;;;;;;;;;5020061;28;20860;-70
2021/04/27 03:01:47;;;;;;;3.03;1.20;;;;;;;;;;5019074;28;20488;-70
2021/04/27 03:04:16;;;;;;;2.90;1.20;;;;;;;;;;5020430;28;20502;-70
2021/04/27 03:06:43;;;;;;;6.20;2.50;;;;;;;;;;5019617;28;20468;-70
2021/04/27 03:09:10;;;;;;;4.73;1.20;;;;;;;;;;5018687;28;20482;-70
2021/04/27 03:11:38;;;;;;;2.50;1.00;;;;;;;;;;5018423;28;20558;-70
2021/04/27 03:14:08;;;;;;;4.33;1.63;;;;;;;;;;5029135;28;20532;-72
2021/04/27 03:16:39;;;;;;;3.30;1.07;;;;;;;;;;5036864;28;20471;-71
2021/04/27 03:19:07;;;;;;;3.30;1.50;;;;;;;;;;5025457;28;20470;-71
2021/04/27 03:21:34;;;;;;;2.87;1.20;;;;;;;;;;5037641;28;20521;-71
2021/04/27 03:24:01;;;;;;;5.43;1.53;;;;;;;;;;5039191;28;20451;-71
2021/04/27 03:26:29;;;;;;;4.60;2.00;;;;;;;;;;5037391;28;20729;-71
2021/04/27 03:28:56;;;;;;;3.80;1.50;;;;;;;;;;5039111;28;20469;-70
2021/04/27 03:31:23;;;;;;;4.30;1.97;;;;;;;;;;5038268;28;20470;-70
2021/04/27 03:33:52;;;;;;;4.90;1.63;;;;;;;;;;5038695;28;20455;-70
2021/04/27 03:36:19;;;;;;;4.30;1.80;;;;;;;;;;5037466;28;20467;-71
2021/04/27 03:38:47;;;;;;;3.57;1.30;;;;;;;;;;5036976;28;20863;-70
2021/04/27 03:41:23;;;;;;;2.90;1.20;;;;;;;;;;5037417;28;20474;-71
2021/04/27 03:43:55;;;;;;;4.00;1.27;;;;;;;;;;5038104;28;20489;-71
2021/04/27 03:46:26;;;;;;;3.50;1.90;;;;;;;;;;5039306;28;20454;-71
2021/04/27 03:49:00;;;;;;;3.43;1.13;;;;;;;;;;5038593;28;20466;-71
2021/04/27 03:51:27;;;;;;;4.63;1.97;;;;;;;;;;5038583;28;20870;-70
2021/04/27 03:53:55;;;;;;;4.13;1.57;;;;;;;;;;5038454;28;20462;-70
2021/04/27 03:56:22;;;;;;;4.00;1.80;;;;;;;;;;5038377;28;20750;-70
2021/04/27 03:58:49;;;;;;;3.10;1.23;;;;;;;;;;5037594;28;20467;-70
2021/04/27 04:01:17;;;;;;;3.10;1.40;;;;;;;;;;5038640;28;20545;-70
2021/04/27 04:03:44;;;;;;;3.67;1.70;;;;;;;;;;5038521;28;20458;-70
2021/04/27 04:06:12;;;;;;;4.87;1.80;;;;;;;;;;5037980;28;20891;-70
2021/04/27 04:08:40;;;;;;;4.00;1.83;;;;;;;;;;5037777;28;20474;-70
2021/04/27 04:11:07;;;;;;;6.20;1.90;;;;;;;;;;5038669;28;20463;-70
2021/04/27 04:13:35;;;;;;;3.00;1.57;;;;;;;;;;5037745;28;20564;-71
2021/04/27 04:16:02;;;;;;;3.53;1.50;;;;;;;;;;5037845;28;20478;-70
2021/04/27 04:18:30;;;;;;;2.80;1.20;;;;;;;;;;5037520;28;20459;-70
2021/04/27 04:20:58;;;;;;;5.47;1.60;;;;;;;;;;5037391;28;20585;-70
2021/04/27 04:23:27;;;;;;;5.03;2.30;;;;;;;;;;5036910;28;20494;-71
2021/04/27 04:25:54;;;;;;;5.80;2.10;;;;;;;;;;5037908;28;20467;-71
2021/04/27 04:28:22;;;;;;;3.27;1.77;;;;;;;;;;5037709;28;20867;-71
2021/04/27 04:30:50;;;;;;;8.07;2.20;;;;;;;;;;5036841;28;20481;-71
2021/04/27 04:33:17;;;;;;;4.20;1.47;;;;;;;;;;5037166;28;20798;-71
2021/04/27 04:35:48;;;;;;;17.33;2.47;;;;;;;;;;5037908;28;20890;-71
2021/04/27 04:38:17;;;;;;;2.80;1.10;;;;;;;;;;5037227;28;20631;-71
2021/04/27 04:40:46;;;;;;;4.40;1.50;;;;;;;;;;5036743;28;20531;-70
2021/04/27 04:43:17;;;;;;;4.93;1.87;;;;;;;;;;5036251;28;20491;-70
2021/04/27 04:45:45;;;;;;;2.80;1.20;;;;;;;;;;5037584;28;20463;-71
2021/04/27 04:48:12;;;;;;;3.87;1.10;;;;;;;;;;5036558;28;20462;-70
2021/04/27 04:50:42;;;;;;;3.80;1.47;;;;;;;;;;5037241;28;20772;-70
2021/04/27 04:53:10;;;;;;;4.67;1.50;;;;;;;;;;5035941;28;20557;-71
2021/04/27 04:55:37;;;;;;;9.80;1.77;;;;;;;;;;5035847;28;20459;-70
2021/04/27 04:58:06;;;;;;;3.60;1.63;;;;;;;;;;5036230;28;20471;-70
2021/04/27 05:00:37;;;;;;;3.27;1.80;;;;;;;;;;5036000;28;20470;-70
2021/04/27 05:03:04;;;;;;;5.93;1.90;;;;;;;;;;5035638;28;20540;-70
2021/04/27 05:05:32;;;;;;;6.53;1.50;;;;;;;;;;5035817;28;20471;-70
2021/04/27 05:08:01;;;;;;;3.53;1.73;;;;;;;;;;5035136;28;20463;-70
2021/04/27 05:10:29;;;;;;;6.37;1.40;;;;;;;;;;5035108;28;20486;-69
2021/04/27 05:12:56;;;;;;;7.33;2.10;;;;;;;;;;5033189;28;20471;-70
2021/04/27 05:15:25;;;;;;;4.80;2.07;;;;;;;;;;5035811;28;20454;-69
2021/04/27 05:17:55;;;;;;;5.13;1.83;;;;;;;;;;5035720;28;20454;-70
2021/04/27 05:20:23;;;;;;;8.10;1.60;;;;;;;;;;5035602;28;20470;-71
2021/04/27 05:22:50;;;;;;;3.40;1.67;;;;;;;;;;5034717;28;20759;-69
2021/04/27 05:25:18;;;;;;;2.93;1.10;;;;;;;;;;5035621;28;20528;-71
2021/04/27 05:27:46;;;;;;;4.63;2.10;;;;;;;;;;5035332;28;20451;-70
2021/04/27 05:30:14;;;;;;;5.67;1.90;;;;;;;;;;5034489;28;20473;-70
2021/04/27 05:32:42;;;;;;;4.70;1.90;;;;;;;;;;5035570;28;20532;-69
2021/04/27 05:35:13;;;;;;;5.73;2.20;;;;;;;;;;5035700;28;20462;-70
2021/04/27 05:37:46;;;;;;;4.00;1.47;;;;;;;;;;5034307;28;21474;-70
2021/04/27 05:40:17;;;;;;;4.13;1.83;;;;;;;;;;5034460;28;20786;-69
2021/04/27 05:42:45;;;;;;;6.20;1.57;;;;;;;;;;5033958;28;20479;-71
2021/04/27 05:45:15;;;;;;;3.93;1.50;;;;;;;;;;5035277;28;20786;-70
2021/04/27 05:47:44;;;;;;;4.17;1.97;;;;;;;;;;5034411;28;20451;-70
2021/04/27 05:50:11;;;;;;;6.63;2.07;;;;;;;;;;5034396;28;20463;-70
2021/04/27 05:52:39;;;;;;;3.23;2.13;;;;;;;;;;5034835;28;20472;-69
2021/04/27 05:55:09;;;;;;;3.67;1.80;;;;;;;;;;5018631;28;20479;-71
2021/04/27 05:57:42;;;;;;;6.87;2.27;;;;;;;;;;5014701;28;20598;-70
2021/04/27 06:00:10;;;;;;;9.17;2.50;;;;;;;;;;5014823;28;20623;-70
2021/04/27 06:02:38;;;;;;;4.20;1.97;;;;;;;;;;5014489;28;20654;-69
2021/04/27 06:05:09;;;;;;;5.67;2.60;;;;;;;;;;5015444;28;20478;-70
2021/04/27 06:07:39;;;;;;;4.90;1.93;;;;;;;;;;5015667;28;20471;-70
2021/04/27 06:10:07;;;;;;;8.03;2.10;;;;;;;;;;5019746;28;20463;-69
2021/04/27 06:12:35;;;;;;;3.80;2.57;;;;;;;;;;5019328;28;20528;-70
2021/04/27 06:15:02;;;;;;;4.87;2.30;;;;;;;;;;5017946;28;20566;-69
2021/04/27 06:17:30;;;;;;;5.53;1.93;;;;;;;;;;5018786;28;20466;-69
2021/04/27 06:19:57;;;;;;;11.77;2.67;;;;;;;;;;5017112;28;20467;-70
2021/04/27 06:22:27;;;;;;;5.13;2.30;;;;;;;;;;5017708;28;20533;-70
2021/04/27 06:24:56;;;;;;;8.13;2.77;;;;;;;;;;5020714;28;20518;-70
2021/04/27 06:27:44;;;;;;;9.53;1.93;;;;;;;;;;5020591;28;20478;-71
2021/04/27 06:30:14;;;;;;;6.57;3.03;;;;;;;;;;5031058;28;20466;-70
2021/04/27 06:32:47;;;;;;;5.43;2.30;;;;;;;;;;5038283;28;20467;-70
2021/04/27 06:35:15;;;;;;;5.37;1.50;;;;;;;;;;5039252;28;20474;-70
2021/04/27 06:37:43;;;;;;;2.93;1.10;;;;;;;;;;5040331;28;20463;-70
2021/04/27 06:40:11;;;;;;;3.57;1.30;;;;;;;;;;5031996;28;20786;-72
2021/04/27 06:42:39;;;;;;;8.70;1.77;;;;;;;;;;5020375;28;20488;-69
2021/04/27 06:45:07;;;;;;;2.77;1.20;;;;;;;;;;5032290;28;20459;-70
2021/04/27 06:47:36;;;;;;;3.67;1.30;;;;;;;;;;5039627;28;20463;-70
2021/04/27 06:50:06;;;;;;;3.90;1.40;;;;;;;;;;5025434;28;20459;-70
2021/04/27 06:52:35;;;;;;;5.50;1.60;;;;;;;;;;5018382;28;20774;-69
2021/04/27 06:55:06;;;;;;;4.70;1.27;;;;;;;;;;5019473;28;20466;-70
2021/04/27 06:57:36;;;;;;;3.70;1.77;;;;;;;;;;5019729;28;20466;-69
2021/04/27 07:00:06;;;;;;;4.93;1.60;;;;;;;;;;5020076;28;20455;-69
2021/04/27 07:02:37;;;;;;;6.53;2.07;;;;;;;;;;5019175;28;20483;-68
2021/04/27 07:05:06;;;;;;;3.60;1.03;;;;;;;;;;5021797;28;20462;-71
2021/04/27 07:07:38;;;;;;;3.13;1.20;;;;;;;;;;5022378;28;20460;-71
2021/04/27 07:10:12;;;;;;;3.47;1.50;;;;;;;;;;5030256;28;20466;-70
2021/04/27 07:12:41;;;;;;;4.93;1.53;;;;;;;;;;5018269;28;20459;-70
2021/04/27 07:15:09;;;;;;;5.80;1.40;;;;;;;;;;5018265;28;20469;-70
2021/04/27 07:17:37;;;;;;;3.00;1.20;;;;;;;;;;5016917;28;20474;-70
2021/04/27 07:20:07;;;;;;;6.90;2.03;;;;;;;;;;5029454;28;20752;-70
2021/04/27 07:22:38;;;;;;;8.03;2.63;;;;;;;;;;5037210;28;20482;-71
2021/04/27 07:25:12;;;;;;;6.87;1.97;;;;;;;;;;5036457;28;20459;-70
2021/04/27 07:27:41;;;;;;;3.60;1.80;;;;;;;;;;5036638;28;20465;-70
2021/04/27 07:30:10;;;;;;;4.90;1.67;;;;;;;;;;5037450;28;20455;-70
2021/04/27 07:32:46;;;;;;;3.63;1.87;;;;;;;;;;5037969;28;20467;-70
2021/04/27 07:35:15;;;;;;;4.17;1.50;;;;;;;;;;5035067;28;20470;-69
2021/04/27 07:37:43;;;;;;;5.17;1.73;;;;;;;;;;5031444;28;20480;-69
2021/04/27 07:40:13;;;;;;;3.33;1.30;;;;;;;;;;5016915;28;20480;-70
2021/04/27 07:42:44;;;;;;;6.17;2.90;;;;;;;;;;5017998;28;20487;-69
2021/04/27 07:45:18;;;;;;;3.40;1.50;;;;;;;;;;5017986;28;20502;-71
2021/04/27 07:47:52;;;;;;;3.60;1.30;;;;;;;;;;5028142;28;20509;-71
2021/04/27 07:50:22;;;;;;;3.60;1.40;;;;;;;;;;5016393;28;20459;-69
2021/04/27 07:52:52;;;;;;;3.60;1.70;;;;;;;;;;5018382;28;20467;-69
2021/04/27 07:55:24;;;;;;;3.83;1.83;;;;;;;;;;5018316;28;20459;-70
2021/04/27 07:57:55;;;;;;;5.73;1.93;;;;;;;;;;5018093;28;20477;-70
2021/04/27 08:00:27;;;;;;;3.80;1.60;;;;;;;;;;5032335;28;20481;-69
2021/04/27 08:02:56;;;;;;;5.30;1.37;;;;;;;;;;5027541;28;20495;-69
2021/04/27 08:05:26;;;;;;;4.60;1.53;;;;;;;;;;5037682;28;20443;-70
2021/04/27 08:07:56;;;;;;;3.67;1.20;;;;;;;;;;5035551;28;20481;-69
2021/04/27 08:10:24;;;;;;;3.33;1.30;;;;;;;;;;5029325;28;20592;-69
2021/04/27 08:13:23;;;;;;;4.90;1.70;;;;;;;;;;5018814;28;20888;-69
2021/04/27 08:15:54;;;;;;;5.07;2.67;;;;;;;;;;5015995;28;20557;-70
2021/04/27 08:18:23;;;;;;;5.53;1.40;;;;;;;;;;5017023;28;20464;-69
2021/04/27 08:20:54;;;;;;;4.60;2.30;;;;;;;;;;5021640;28;20470;-71
2021/04/27 08:23:23;;;;;;;7.03;1.40;;;;;;;;;;5044780;28;20482;-71
2021/04/27 08:25:51;;;;;;;2.87;1.27;;;;;;;;;;5026308;28;20558;-70
2021/04/27 08:28:23;;;;;;;4.40;1.50;;;;;;;;;;5037140;28;20474;-69
2021/04/27 08:30:50;;;;;;;4.50;1.93;;;;;;;;;;5036582;28;20455;-70
2021/04/27 08:33:18;;;;;;;3.50;1.20;;;;;;;;;;5027991;28;20470;-70
2021/04/27 08:35:45;;;;;;;3.80;1.40;;;;;;;;;;5028833;28;20466;-69
2021/04/27 08:38:22;;;;;;;5.90;2.00;;;;;;;;;;5034441;28;20470;-69
2021/04/27 08:40:54;;;;;;;4.47;1.90;;;;;;;;;;5035081;28;20454;-69
2021/04/27 08:43:22;;;;;;;3.20;1.20;;;;;;;;;;5019867;28;20484;-71
2021/04/27 08:45:50;;;;;;;5.57;1.93;;;;;;;;;;5036341;28;20458;-70
2021/04/27 08:48:18;;;;;;;3.80;1.50;;;;;;;;;;5036081;28;20462;-70
2021/04/27 08:50:48;;;;;;;4.73;1.10;;;;;;;;;;5036502;28;20886;-70
2021/04/27 08:53:15;;;;;;;4.17;1.40;;;;;;;;;;5035679;28;21098;-70
2021/04/27 08:55:46;;;;;;;6.40;1.80;;;;;;;;;;5034840;28;20544;-68
2021/04/27 08:58:16;;;;;;;3.03;1.30;;;;;;;;;;5036769;28;20459;-69
2021/04/27 09:00:44;;;;;;;5.57;1.10;;;;;;;;;;5018737;28;20467;-68
2021/04/27 09:03:16;;;;;;;5.17;2.33;;;;;;;;;;5035287;28;20505;-69
2021/04/27 09:05:45;;;;;;;3.40;1.40;;;;;;;;;;5036550;28;20538;-69
2021/04/27 09:08:13;;;;;;;5.07;1.63;;;;;;;;;;5033367;28;20890;-69
2021/04/27 09:10:43;;;;;;;4.10;1.50;;;;;;;;;;5034218;28;20465;-69
2021/04/27 09:13:12;;;;;;;4.00;1.30;;;;;;;;;;5035935;28;20498;-70
2021/04/27 09:15:45;;;;;;;3.87;1.67;;;;;;;;;;5035370;28;20485;-69
2021/04/27 09:18:29;;;;;;;3.87;1.53;;;;;;;;;;5024710;28;20562;-70
2021/04/27 09:20:58;;;;;;;5.17;1.80;;;;;;;;;;5026836;28;20446;-69
2021/04/27 09:23:30;;;;;;;4.30;1.87;;;;;;;;;;5035855;28;20491;-69
2021/04/27 09:26:08;;;;;;;5.33;1.53;;;;;;;;;;5036079;28;20459;-70
2021/04/27 09:28:36;;;;;;;4.70;1.83;;;;;;;;;;5018504;28;20554;-68
2021/04/27 09:31:21;;;;;;;3.00;1.20;;;;;;;;;;5017081;28;20463;-69
2021/04/27 09:33:48;;;;;;;3.30;1.37;;;;;;;;;;5017367;28;20884;-70
2021/04/27 09:36:20;;;;;;;5.20;1.83;;;;;;;;;;4998963;28;20529;-69
2021/04/27 09:38:53;;;;;;;3.17;1.27;;;;;;;;;;5018401;28;20470;-70
2021/04/27 09:41:24;;;;;;;5.40;1.83;;;;;;;;;;5015710;28;20503;-70
2021/04/27 09:43:51;;;;;;;4.27;1.20;;;;;;;;;;5019218;28;20962;-70
2021/04/27 09:46:21;;;;;;;3.80;1.27;;;;;;;;;;5029882;28;20746;-70
2021/04/27 09:48:49;;;;;;;7.17;1.83;;;;;;;;;;5039262;28;20473;-70
2021/04/27 09:51:21;;;;;;;4.10;2.30;;;;;;;;;;5038775;28;20466;-70
2021/04/27 09:53:50;;;;;;;3.83;1.00;;;;;;;;;;5037823;28;20611;-69
2021/04/27 09:56:34;;;;;;;8.70;2.03;;;;;;;;;;5038240;28;20462;-69
2021/04/27 09:59:03;;;;;;;2.97;1.20;;;;;;;;;;5037279;28;20804;-68
2021/04/27 10:01:31;;;;;;;3.57;1.57;;;;;;;;;;5037988;28;20450;-69
2021/04/27 10:03:58;;;;;;;4.90;2.27;;;;;;;;;;5037940;28;20497;-69
2021/04/27 10:06:26;;;;;;;3.83;1.40;;;;;;;;;;5034366;28;20451;-69
2021/04/27 10:08:54;;;;;;;5.77;1.57;;;;;;;;;;5036730;28;20525;-69
2021/04/27 10:11:24;;;;;;;3.67;1.43;;;;;;;;;;5037517;28;20878;-70
2021/04/27 10:13:55;;;;;;;6.07;2.83;;;;;;;;;;5038252;28;20473;-69
2021/04/27 10:16:23;;;;;;;6.53;1.83;;;;;;;;;;5038328;28;20462;-69
2021/04/27 10:18:54;;;;;;;8.70;2.07;;;;;;;;;;5038652;28;20473;-70
2021/04/27 10:21:21;;;;;;;4.30;2.07;;;;;;;;;;5038277;28;20466;-70
2021/04/27 10:23:53;;;;;;;4.53;1.70;;;;;;;;;;5037668;28;20622;-69
2021/04/27 10:26:23;;;;;;;3.23;1.53;;;;;;;;;;5037607;28;20471;-69
2021/04/27 10:29:03;;;;;;;5.47;2.30;;;;;;;;;;5037564;28;20466;-70
2021/04/27 10:31:32;;;;;;;3.60;1.60;;;;;;;;;;5036419;28;20458;-69
2021/04/27 10:34:03;;;;;;;3.67;1.90;;;;;;;;;;5035336;28;20511;-70
2021/04/27 10:36:31;;;;;;;3.50;1.43;;;;;;;;;;5028761;28;20474;-70
2021/04/27 10:39:00;;;;;;;3.00;1.27;;;;;;;;;;5028052;28;20455;-70
2021/04/27 10:41:45;;;;;;;5.50;1.50;;;;;;;;;;5028733;28;20455;-68
2021/04/27 10:44:17;;;;;;;4.00;1.83;;;;;;;;;;5027707;28;20510;-70
2021/04/27 10:46:50;;;;;;;3.90;1.83;;;;;;;;;;5035339;28;20481;-70
2021/04/27 10:49:38;;;;;;;4.67;2.10;;;;;;;;;;5039800;28;20496;-70
2021/04/27 10:52:08;;;;;;;2.90;1.37;;;;;;;;;;5048177;28;20459;-70
2021/04/27 10:54:37;;;;;;;4.63;1.63;;;;;;;;;;5056061;28;20496;-69
2021/04/27 10:57:16;;;;;;;4.30;1.40;;;;;;;;;;5039805;28;20522;-70
2021/04/27 11:00:10;;;;;;;3.10;1.50;;;;;;;;;;5036961;28;20489;-70
2021/04/27 11:02:39;;;;;;;3.83;1.37;;;;;;;;;;5037437;28;20486;-69
2021/04/27 11:05:24;;;;;;;6.83;2.50;;;;;;;;;;5035459;28;20471;-70
2021/04/27 11:08:12;;;;;;;4.40;2.00;;;;;;;;;;5021199;28;20558;-70
2021/04/27 11:10:44;;;;;;;4.60;1.20;;;;;;;;;;5022171;28;20722;-68
2021/04/27 11:13:15;;;;;;;3.60;1.50;;;;;;;;;;5023148;28;20467;-70
2021/04/27 11:15:47;;;;;;;4.73;1.57;;;;;;;;;;5026820;28;20718;-72
2021/04/27 11:18:42;;;;;;;3.97;1.80;;;;;;;;;;5037760;28;20458;-70
2021/04/27 11:21:12;;;;;;;2.77;1.00;;;;;;;;;;5038805;28;20463;-69
2021/04/27 11:23:50;;;;;;;5.20;1.20;;;;;;;;;;5027507;28;20479;-70
2021/04/27 11:26:36;;;;;;;3.63;1.30;;;;;;;;;;5035898;28;20547;-70
2021/04/27 11:29:09;;;;;;;4.13;1.90;;;;;;;;;;5037423;28;20470;-69
2021/04/27 11:31:55;;;;;;;3.57;1.40;;;;;;;;;;5036856;28;20808;-69
2021/04/27 11:34:23;;;;;;;3.37;1.40;;;;;;;;;;5037017;28;20462;-70
2021/04/27 11:36:53;;;;;;;3.97;1.40;;;;;;;;;;5034812;28;20478;-69
2021/04/27 11:39:23;;;;;;;3.00;1.37;;;;;;;;;;5036182;28;20558;-70
2021/04/27 11:41:55;;;;;;;3.07;1.20;;;;;;;;;;5035760;28;20465;-71
2021/04/27 11:44:23;;;;;;;4.10;1.50;;;;;;;;;;5036121;28;20493;-70
2021/04/27 11:47:14;;;;;;;3.13;1.20;;;;;;;;;;5034599;28;20454;-70
2021/04/27 11:49:49;;;;;;;4.60;1.67;;;;;;;;;;5029581;28;20467;-70
2021/04/27 11:52:17;;;;;;;6.67;1.57;;;;;;;;;;5035689;28;20861;-70
2021/04/27 11:54:46;;;;;;;2.60;1.00;;;;;;;;;;5035860;28;20570;-70
2021/04/27 11:57:17;;;;;;;3.87;1.20;;;;;;;;;;5034948;28;20493;-70
2021/04/27 11:59:45;;;;;;;3.40;1.23;;;;;;;;;;5034649;28;20693;-70
2021/04/27 12:02:14;;;;;;;5.00;1.77;;;;;;;;;;5034439;28;20596;-69
2021/04/27 12:04:43;;;;;;;2.70;1.10;;;;;;;;;;5035771;28;20474;-69
2021/04/27 12:07:14;;;;;;;3.37;1.13;;;;;;;;;;5036407;28;20459;-70
2021/04/27 12:09:42;;;;;;;6.90;1.40;;;;;;;;;;5035975;28;20463;-70
2021/04/27 12:12:12;;;;;;;3.80;1.37;;;;;;;;;;5035683;28;20553;-69
2021/04/27 12:14:41;;;;;;;3.43;1.23;;;;;;;;;;5035159;28;20498;-69
2021/04/27 12:17:13;;;;;;;4.20;1.80;;;;;;;;;;5035381;28;20469;-70
2021/04/27 12:19:40;;;;;;;3.10;1.20;;;;;;;;;;5035849;28;20455;-69
2021/04/27 12:22:08;;;;;;;3.93;1.50;;;;;;;;;;5036374;28;20454;-71
2021/04/27 12:24:38;;;;;;;3.23;1.20;;;;;;;;;;5034501;28;20524;-71
2021/04/27 12:27:09;;;;;;;2.60;1.10;;;;;;;;;;5034670;28;20541;-71
2021/04/27 12:29:40;;;;;;;3.37;1.30;;;;;;;;;;5035315;28;20476;-71
2021/04/27 12:32:10;;;;;;;4.27;2.03;;;;;;;;;;5035687;28;20536;-71
2021/04/27 12:34:38;;;;;;;3.00;1.30;;;;;;;;;;5015365;28;20467;-70
2021/04/27 12:37:17;;;;;;;4.40;1.87;;;;;;;;;;5016018;28;20476;-69
2021/04/27 12:39:49;;;;;;;3.00;1.33;;;;;;;;;;5030393;28;20929;-69
2021/04/27 12:42:19;;;;;;;3.00;1.30;;;;;;;;;;5034593;28;20449;-70
2021/04/27 12:44:57;;;;;;;3.47;0.90;;;;;;;;;;5034876;28;20485;-70
2021/04/27 12:47:29;;;;;;;3.50;1.40;;;;;;;;;;5035983;28;20451;-71
2021/04/27 12:50:01;;;;;;;4.20;1.17;;;;;;;;;;5034684;28;20474;-71
2021/04/27 12:52:29;;;;;;;4.00;1.33;;;;;;;;;;5035071;28;20471;-69
2021/04/27 12:55:21;;;;;;;4.03;1.07;;;;;;;;;;5033605;28;20516;-70
2021/04/27 12:57:49;;;;;;;3.30;1.40;;;;;;;;;;5036496;28;20466;-70
2021/04/27 13:00:27;;;;;;;2.90;0.93;;;;;;;;;;5035475;28;20940;-69
2021/04/27 13:02:58;;;;;;;4.37;1.77;;;;;;;;;;5035631;28;20501;-68
2021/04/27 13:05:26;;;;;;;3.10;1.10;;;;;;;;;;5037958;28;20485;-69
2021/04/27 13:08:04;;;;;;;3.70;0.97;;;;;;;;;;5036226;28;20479;-68
2021/04/27 13:10:36;;;;;;;4.10;1.40;;;;;;;;;;5041032;28;20455;-69
2021/04/27 13:13:14;;;;;;;2.60;0.80;;;;;;;;;;5034667;28;20871;-71
2021/04/27 13:15:46;;;;;;;3.93;0.80;;;;;;;;;;5029179;28;20895;-70
2021/04/27 13:18:13;;;;;;;4.20;1.10;;;;;;;;;;5034572;28;20486;-69
2021/04/27 13:20:42;;;;;;;2.67;1.07;;;;;;;;;;5034920;28;20897;-72
2021/04/27 13:23:12;;;;;;;3.23;1.03;;;;;;;;;;5035614;28;20497;-70
2021/04/27 13:25:42;;;;;;;3.30;1.40;;;;;;;;;;5036090;28;20455;-70
2021/04/27 13:28:15;;;;;;;5.43;1.70;;;;;;;;;;5034759;28;20467;-70
2021/04/27 13:30:48;;;;;;;6.07;2.50;;;;;;;;;;5035360;28;20462;-70
2021/04/27 13:33:16;;;;;;;3.37;1.00;;;;;;;;;;5033517;28;20484;-70
2021/04/27 13:35:47;;;;;;;3.60;1.00;;;;;;;;;;5033512;28;20530;-70
2021/04/27 13:38:16;;;;;;;2.53;0.97;;;;;;;;;;5016228;28;20456;-70
2021/04/27 13:40:51;;;;;;;3.30;1.37;;;;;;;;;;5016227;28;20447;-70
2021/04/27 13:43:27;;;;;;;3.20;1.33;;;;;;;;;;5030441;28;20910;-70
2021/04/27 13:46:09;;;;;;;4.53;1.00;;;;;;;;;;5033931;28;20474;-70
2021/04/27 13:48:42;;;;;;;2.70;1.00;;;;;;;;;;5033216;28;20455;-70
2021/04/27 13:51:39;;;;;;;3.40;1.13;;;;;;;;;;5037039;28;20857;-70
2021/04/27 13:54:22;;;;;;;3.57;1.30;;;;;;;;;;5036914;28;20770;-69
2021/04/27 13:56:50;;;;;;;3.07;0.63;;;;;;;;;;5034162;28;20477;-69
2021/04/27 13:59:18;;;;;;;3.80;1.27;;;;;;;;;;5034294;28;20487;-69
2021/04/27 14:01:51;;;;;;;6.23;1.40;;;;;;;;;;5031069;28;20460;-70
2021/04/27 14:04:23;;;;;;;3.90;1.33;;;;;;;;;;5032931;28;20526;-70
2021/04/27 14:06:51;;;;;;;3.30;1.33;;;;;;;;;;5032505;28;20466;-70
2021/04/27 14:09:19;;;;;;;3.00;1.10;;;;;;;;;;5036330;28;20696;-70
2021/04/27 14:11:46;;;;;;;3.43;1.27;;;;;;;;;;5035449;28;21112;-70
2021/04/27 14:14:14;;;;;;;6.57;1.20;;;;;;;;;;5031776;28;20887;-70
2021/04/27 14:16:43;;;;;;;3.27;1.00;;;;;;;;;;5032431;28;20871;-71
2021/04/27 14:19:12;;;;;;;3.97;1.70;;;;;;;;;;5020530;28;20462;-70
2021/04/27 14:21:41;;;;;;;2.73;0.70;;;;;;;;;;5035360;28;20451;-70
2021/04/27 14:24:09;;;;;;;3.43;1.10;;;;;;;;;;5035006;28;20491;-70
2021/04/27 14:26:40;;;;;;;2.70;1.20;;;;;;;;;;5037800;28;20554;-71
2021/04/27 14:29:10;;;;;;;2.60;0.77;;;;;;;;;;5035911;28;20762;-70
2021/04/27 14:31:38;;;;;;;2.73;0.80;;;;;;;;;;5040695;28;20458;-70
2021/04/27 14:34:06;;;;;;;2.70;1.00;;;;;;;;;;5028609;28;20558;-71
2021/04/27 14:36:34;;;;;;;2.70;0.97;;;;;;;;;;5018407;28;20490;-70
2021/04/27 14:39:01;;;;;;;4.00;0.93;;;;;;;;;;5022910;28;20490;-70
2021/04/27 14:41:31;;;;;;;3.60;1.23;;;;;;;;;;5018507;28;20798;-69
2021/04/27 14:44:04;;;;;;;3.90;1.27;;;;;;;;;;5019296;28;20945;-71
2021/04/27 14:46:33;;;;;;;4.43;1.67;;;;;;;;;;5032125;28;20462;-71
2021/04/27 14:49:12;;;;;;;3.20;1.30;;;;;;;;;;5038193;28;20491;-71
2021/04/27 14:51:42;;;;;;;3.43;1.27;;;;;;;;;;5036870;28;20544;-71
2021/04/27 14:54:29;;;;;;;2.30;0.80;;;;;;;;;;5037282;28;20454;-70
2021/04/27 14:56:59;;;;;;;2.70;1.10;;;;;;;;;;5020181;28;20488;-70
2021/04/27 14:59:27;;;;;;;3.93;1.20;;;;;;;;;;5034124;28;20501;-71
2021/04/27 15:01:57;;;;;;;2.50;0.80;;;;;;;;;;5037659;28;20478;-70
2021/04/27 15:04:29;;;;;;;3.57;1.20;;;;;;;;;;5033059;28;20911;-70
2021/04/27 15:07:15;;;;;;;3.83;1.40;;;;;;;;;;5037570;28;20497;-71